Time;durP1;ratioP1;P1;durP2;ratioP2;P2;SDS_P1;SDS_P2;PMS_P1;PMS_P2;Temp;Humidity;BMP_temperature;BMP_pressure;BME280_temperature;BME280_humidity;BME280_pressure;Samples;Min_cycle;Max_cycle;Signal;HPM_P1;HPM_P2
2022/12/16 00:01:21;;;;;;;51.53;23.42;;;;;;;3.84;77.96;98675.69;1648018;87;21772;-77
2022/12/16 00:03:52;;;;;;;53.48;21.95;;;;;;;3.85;77.90;98663.27;1651660;86;20998;-76
2022/12/16 00:06:20;;;;;;;51.53;21.70;;;;;;;3.83;77.90;98672.70;1647496;87;21058;-76
2022/12/16 00:08:46;;;;;;;52.27;22.93;;;;;;;3.83;77.55;98675.28;1652395;86;21882;-76
2022/12/16 00:11:14;;;;;;;62.10;25.10;;;;;;;3.80;77.71;98669.73;1652969;87;21054;-76
2022/12/16 00:13:40;;;;;;;54.45;23.67;;;;;;;3.79;78.00;98675.72;1652839;86;20988;-76
2022/12/16 00:16:13;;;;;;;52.33;19.85;;;;;;;3.78;77.41;98670.17;1652933;87;21510;-76
2022/12/16 00:18:40;;;;;;;55.75;23.20;;;;;;;3.75;77.31;98667.59;1647778;87;21538;-76
2022/12/16 00:21:08;;;;;;;53.40;21.45;;;;;;;3.65;77.10;98664.21;1640660;85;21031;-76
2022/12/16 00:23:35;;;;;;;46.18;20.20;;;;;;;3.59;77.09;98664.23;1640615;86;21009;-75
2022/12/16 00:26:02;;;;;;;54.63;21.37;;;;;;;3.50;77.17;98666.83;1652758;86;21348;-76
2022/12/16 00:28:29;;;;;;;45.20;19.95;;;;;;;3.48;77.44;98654.41;1647414;86;20992;-76
2022/12/16 00:30:56;;;;;;;56.98;22.67;;;;;;;3.35;77.81;98642.90;1654928;86;21101;-76
2022/12/16 00:33:26;;;;;;;51.95;20.88;;;;;;;3.31;78.12;98639.92;1648694;86;21052;-76
2022/12/16 00:35:54;;;;;;;51.10;20.50;;;;;;;3.33;78.41;98647.19;1654917;86;20982;-76
2022/12/16 00:38:22;;;;;;;54.95;21.70;;;;;;;3.34;78.67;98647.63;1655498;86;21034;-76
2022/12/16 00:40:49;;;;;;;59.48;23.52;;;;;;;3.33;78.67;98640.77;1649332;87;21053;-76
2022/12/16 00:43:16;;;;;;;53.45;23.35;;;;;;;3.36;78.82;98645.91;1654726;86;20986;-76
2022/12/16 00:45:44;;;;;;;60.95;23.25;;;;;;;3.36;78.89;98651.05;1653533;86;21114;-77
2022/12/16 00:48:10;;;;;;;67.30;25.55;;;;;;;3.35;78.85;98650.61;1657364;86;21914;-77
2022/12/16 00:50:37;;;;;;;48.48;21.52;;;;;;;3.33;78.89;98644.63;1645358;87;21107;-76
2022/12/16 00:53:04;;;;;;;55.83;24.15;;;;;;;3.42;78.33;98636.02;1655693;86;20982;-76
2022/12/16 00:55:31;;;;;;;60.73;24.98;;;;;;;3.36;78.62;98643.75;1649538;86;20994;-76
2022/12/16 00:57:58;;;;;;;53.58;23.10;;;;;;;3.36;78.56;98643.34;1655448;86;20965;-76
2022/12/16 01:00:25;;;;;;;53.30;23.73;;;;;;;3.39;78.35;98641.18;1652380;86;20984;-76
2022/12/16 01:02:51;;;;;;;61.92;25.12;;;;;;;3.36;78.08;98648.48;1653970;86;20986;-76
2022/12/16 01:05:25;;;;;;;53.33;23.98;;;;;;;3.36;78.30;98659.16;1653016;86;20981;-77
2022/12/16 01:07:49;;;;;;;52.80;22.90;;;;;;;3.39;77.91;98661.73;1653438;86;21490;-76
2022/12/16 01:10:16;;;;;;;52.60;22.90;;;;;;;3.37;78.62;98663.02;1656631;86;21006;-76
2022/12/16 01:12:43;;;;;;;52.13;21.42;;;;;;;3.42;78.02;98660.86;1650142;86;21510;-76
2022/12/16 01:15:11;;;;;;;52.10;23.07;;;;;;;3.42;78.61;98655.28;1656225;86;21082;-77
2022/12/16 01:17:39;;;;;;;57.05;23.20;;;;;;;3.44;78.70;98638.59;1649753;86;21010;-76
2022/12/16 01:20:06;;;;;;;54.27;23.42;;;;;;;3.47;78.70;98642.44;1644402;87;21129;-76
2022/12/16 01:22:33;;;;;;;56.35;23.27;;;;;;;3.48;78.72;98616.74;1584095;89;22223;-76
2022/12/16 01:25:00;;;;;;;54.33;22.40;;;;;;;3.52;78.47;98604.70;1588737;88;21532;-76
2022/12/16 01:27:28;;;;;;;52.62;20.60;;;;;;;3.51;79.06;98599.16;1573286;90;21108;-76
2022/12/16 01:29:55;;;;;;;52.00;20.23;;;;;;;3.48;79.22;98602.61;1562135;91;21065;-76
2022/12/16 01:32:22;;;;;;;51.00;21.55;;;;;;;3.50;79.73;98610.28;1606301;88;21071;-76
2022/12/16 01:34:54;;;;;;;54.48;19.02;;;;;;;3.51;79.00;98615.87;1615906;88;21051;-76
2022/12/16 01:37:21;;;;;;;47.83;19.90;;;;;;;3.51;80.21;98600.01;1621365;88;20949;-76
2022/12/16 01:39:48;;;;;;;42.53;18.37;;;;;;;3.57;79.96;98605.55;1611272;88;21068;-76
2022/12/16 01:42:18;;;;;;;43.33;18.37;;;;;;;3.59;80.04;98593.55;1620428;88;21624;-76
2022/12/16 01:44:48;;;;;;;42.90;18.27;;;;;;;3.64;80.28;98578.09;1614694;87;20992;-75
2022/12/16 01:47:26;;;;;;;45.40;18.50;;;;;;;3.65;80.43;98567.80;1622822;88;21072;-75
2022/12/16 01:50:01;;;;;;;46.37;20.62;;;;;;;3.69;80.89;98571.22;1610349;88;21473;-76
2022/12/16 01:52:32;;;;;;;46.73;20.55;;;;;;;3.78;80.69;98553.18;1617661;88;21013;-75
2022/12/16 01:55:10;;;;;;;47.10;20.80;;;;;;;3.73;80.57;98562.63;1593788;88;21052;-76
2022/12/16 01:57:42;;;;;;;47.17;21.60;;;;;;;3.74;80.22;98578.05;1567345;91;21002;-76
2022/12/16 02:00:11;;;;;;;46.42;20.50;;;;;;;3.66;80.52;98559.25;1564679;91;21004;-75
2022/12/16 02:02:43;;;;;;;41.88;20.75;;;;;;;3.66;80.08;98565.67;1572558;91;21021;-76
2022/12/16 02:05:20;;;;;;;51.48;21.85;;;;;;;3.62;79.81;98556.27;1594198;89;21025;-76
2022/12/16 02:08:18;;;;;;;55.03;21.50;;;;;;;3.55;80.18;98542.58;1625004;88;21021;-75
2022/12/16 02:11:09;;;;;;;52.33;21.73;;;;;;;3.51;79.81;98560.17;1603513;89;21100;-75
2022/12/16 02:13:53;;;;;;;43.35;17.90;;;;;;;3.43;79.95;98543.09;1587044;88;21036;-75
2022/12/16 02:16:46;;;;;;;47.05;18.10;;;;;;;3.39;79.99;98539.68;1602439;88;21052;-75
2022/12/16 02:19:52;;;;;;;54.42;19.50;;;;;;;3.36;80.15;98540.97;1621077;88;21059;-75
2022/12/16 02:23:14;;;;;;;44.27;18.50;;;;;;;3.33;80.31;98546.98;1624919;88;21072;-75
2022/12/16 02:26:21;;;;;;;45.15;20.85;;;;;;;3.30;80.47;98553.44;1613620;87;21096;-75
2022/12/16 02:29:40;;;;;;;49.45;19.80;;;;;;;3.25;81.25;98538.46;1596799;88;21560;-75
2022/12/16 02:32:38;;;;;;;44.95;19.57;;;;;;;3.23;81.48;98545.32;1577059;90;21068;-76
2022/12/16 02:35:26;;;;;;;47.83;19.95;;;;;;;3.24;81.43;98532.88;1615810;88;21055;-75
2022/12/16 02:38:34;;;;;;;43.17;18.62;;;;;;;3.23;81.70;98526.50;1607749;88;21104;-75
2022/12/16 02:41:04;;;;;;;45.98;20.92;;;;;;;3.27;81.70;98523.89;1611596;87;21540;-75
2022/12/16 02:43:57;;;;;;;50.05;23.18;;;;;;;3.28;81.82;98539.75;1617322;88;21659;-75
2022/12/16 02:46:28;;;;;;;56.13;23.30;;;;;;;3.30;81.56;98530.31;1613190;88;21028;-75
2022/12/16 02:48:55;;;;;;;50.58;21.55;;;;;;;3.32;81.59;98532.45;1621628;88;21064;-76
2022/12/16 02:51:25;;;;;;;54.90;23.60;;;;;;;3.35;81.76;98521.29;1623519;88;21056;-76
2022/12/16 02:53:55;;;;;;;51.23;22.25;;;;;;;3.34;81.63;98519.16;1618691;88;21064;-76
2022/12/16 02:57:01;;;;;;;55.45;21.57;;;;;;;3.36;81.37;98522.98;1621465;88;20992;-76
2022/12/16 02:59:39;;;;;;;53.08;22.50;;;;;;;3.36;80.83;98535.83;1601400;88;21032;-76
2022/12/16 03:02:27;;;;;;;59.90;23.27;;;;;;;3.33;81.81;98531.56;1615769;87;21496;-76
2022/12/16 03:05:17;;;;;;;57.05;23.77;;;;;;;3.33;81.52;98515.30;1615254;89;21016;-76
2022/12/16 03:07:45;;;;;;;55.25;23.95;;;;;;;3.31;82.22;98514.02;1606397;89;21528;-76
2022/12/16 03:10:16;;;;;;;64.30;23.83;;;;;;;3.33;81.91;98508.88;1589875;89;21004;-76
2022/12/16 03:12:44;;;;;;;54.55;21.33;;;;;;;3.34;80.74;98505.44;1608261;88;21536;-76
2022/12/16 03:15:16;;;;;;;57.53;21.20;;;;;;;3.31;83.38;98490.05;1603730;88;20996;-76
2022/12/16 03:17:45;;;;;;;52.48;21.42;;;;;;;3.33;82.46;98481.47;1609535;88;21008;-76
2022/12/16 03:20:20;;;;;;;48.60;21.05;;;;;;;3.36;82.67;98485.72;1617566;88;20976;-76
2022/12/16 03:22:51;;;;;;;52.73;22.45;;;;;;;3.37;82.26;98498.56;1616835;87;21044;-76
2022/12/16 03:25:20;;;;;;;51.08;20.88;;;;;;;3.38;82.04;98498.13;1594082;88;21418;-76
2022/12/16 03:28:31;;;;;;;52.50;22.45;;;;;;;3.41;83.01;98503.27;1618871;87;20996;-75
2022/12/16 03:31:31;;;;;;;56.35;21.25;;;;;;;3.45;83.18;98499.81;1614901;88;21024;-76
2022/12/16 03:34:28;;;;;;;50.92;19.85;;;;;;;3.49;83.04;98483.95;1606410;88;21031;-76
2022/12/16 03:37:00;;;;;;;49.55;19.27;;;;;;;3.52;83.55;98482.63;1608907;88;21001;-76
2022/12/16 03:39:28;;;;;;;44.08;20.17;;;;;;;3.55;83.60;98476.20;1608152;88;21028;-76
2022/12/16 03:41:55;;;;;;;47.50;19.02;;;;;;;3.60;83.62;98466.72;1619878;88;20976;-76
2022/12/16 03:44:24;;;;;;;42.50;18.77;;;;;;;3.63;84.33;98454.30;1609493;87;21031;-76
2022/12/16 03:46:51;;;;;;;53.58;22.00;;;;;;;3.65;84.41;98452.56;1616010;88;20997;-76
2022/12/16 03:49:18;;;;;;;53.55;23.27;;;;;;;3.69;84.85;98449.11;1618296;87;21501;-76
2022/12/16 03:51:44;;;;;;;59.33;24.52;;;;;;;3.72;84.83;98443.52;1615436;88;21056;-76
2022/12/16 03:54:10;;;;;;;58.60;23.47;;;;;;;3.69;84.64;98435.81;1620159;87;21059;-76
2022/12/16 03:56:37;;;;;;;52.05;22.85;;;;;;;3.65;84.78;98435.42;1611328;88;21064;-76
2022/12/16 03:59:04;;;;;;;51.48;22.20;;;;;;;3.65;84.66;98439.72;1609046;88;21079;-76
2022/12/16 04:01:30;;;;;;;49.40;22.17;;;;;;;3.61;84.65;98429.88;1589905;90;21488;-76
2022/12/16 04:03:57;;;;;;;53.60;22.60;;;;;;;3.59;84.60;98432.90;1577674;91;21095;-76
2022/12/16 04:06:23;;;;;;;50.60;21.85;;;;;;;3.57;85.17;98429.05;1589615;89;21457;-76
2022/12/16 04:08:49;;;;;;;56.33;24.70;;;;;;;3.57;84.25;98440.61;1577152;91;21079;-76
2022/12/16 04:25:32;;;;;;;50.83;20.05;;;;;;;3.36;85.47;98421.08;1645124;87;21011;-76
2022/12/16 04:27:59;;;;;;;46.92;19.42;;;;;;;3.31;86.53;98405.27;1644782;87;21574;-76
2022/12/16 04:30:29;;;;;;;41.40;18.30;;;;;;;3.41;85.59;98412.48;1644920;87;21042;-76
